createdAt,value
2022-10-27T00:01:26.460Z,98835.00
2022-10-27T00:03:56.215Z,98845.00
2022-10-27T00:06:25.380Z,98848.00
2022-10-27T00:08:54.894Z,98851.00
2022-10-27T00:11:24.070Z,98854.00
2022-10-27T00:13:53.261Z,98859.00
2022-10-27T00:16:22.371Z,98853.00
2022-10-27T00:18:51.525Z,98856.00
2022-10-27T00:21:23.273Z,98865.00
2022-10-27T00:23:53.455Z,98863.00
2022-10-27T00:26:24.120Z,98862.00
2022-10-27T00:28:53.304Z,98873.00
2022-10-27T00:31:24.118Z,98871.00
2022-10-27T00:33:53.304Z,98872.00
2022-10-27T00:36:26.123Z,98876.00
2022-10-27T00:39:00.861Z,98885.00
2022-10-27T00:41:40.712Z,98879.00
2022-10-27T00:44:48.214Z,98885.00
2022-10-27T00:47:32.396Z,98888.00
2022-10-27T00:50:26.300Z,98897.00
2022-10-27T00:53:01.497Z,98901.00
2022-10-27T00:55:42.320Z,98899.00
2022-10-27T00:58:22.637Z,98915.00
2022-10-27T01:00:52.096Z,98912.00
2022-10-27T01:03:25.481Z,98911.00
2022-10-27T01:05:58.376Z,98908.00
2022-10-27T01:08:31.718Z,98920.00
2022-10-27T01:11:06.367Z,98918.00
2022-10-27T01:13:35.964Z,98924.00
2022-10-27T01:16:39.684Z,98935.00
2022-10-27T01:19:56.694Z,98936.00
2022-10-27T01:22:48.931Z,98945.00
2022-10-27T01:26:07.969Z,98941.00
2022-10-27T01:28:55.300Z,98954.00
2022-10-27T01:31:35.722Z,98955.00
2022-10-27T01:34:28.537Z,98954.00
2022-10-27T01:37:14.619Z,98958.00
2022-10-27T01:40:00.541Z,98955.00
2022-10-27T01:42:42.149Z,98957.00
2022-10-27T01:45:15.803Z,98962.00
2022-10-27T01:47:45.395Z,98964.00
2022-10-27T01:50:20.573Z,98976.00
2022-10-27T01:52:52.027Z,98975.00
2022-10-27T01:55:48.773Z,98982.00
2022-10-27T01:59:01.699Z,98987.00
2022-10-27T02:02:08.887Z,99001.00
2022-10-27T02:05:18.429Z,98998.00
2022-10-27T02:08:06.971Z,98992.00
2022-10-27T02:11:05.424Z,98994.00
2022-10-27T02:13:41.242Z,99002.00
2022-10-27T02:16:27.237Z,98999.00
2022-10-27T02:19:34.339Z,99007.00
2022-10-27T02:22:06.335Z,99007.00
2022-10-27T02:24:36.067Z,99006.00
2022-10-27T02:27:39.584Z,99011.00
2022-10-27T02:30:09.539Z,99005.00
2022-10-27T02:32:39.562Z,99010.00
2022-10-27T02:35:12.843Z,99004.00
2022-10-27T02:37:44.699Z,99006.00
2022-10-27T02:40:16.899Z,99008.00
2022-10-27T02:42:46.802Z,99001.00
2022-10-27T02:45:16.096Z,99001.00
2022-10-27T02:47:45.289Z,98994.00
2022-10-27T02:50:14.570Z,98996.00
2022-10-27T02:52:46.556Z,98991.00
2022-10-27T02:55:16.030Z,98992.00
2022-10-27T02:57:47.737Z,98997.00
2022-10-27T03:00:18.117Z,99002.00
2022-10-27T03:02:50.345Z,99003.00
2022-10-27T03:05:19.740Z,98996.00
2022-10-27T03:07:48.882Z,98999.00
2022-10-27T03:10:18.121Z,98995.00
2022-10-27T03:12:49.737Z,98989.00
2022-10-27T03:15:19.185Z,98997.00
2022-10-27T03:17:49.750Z,98998.00
2022-10-27T03:20:19.708Z,98993.00
2022-10-27T03:22:49.121Z,98985.00
2022-10-27T03:25:18.797Z,98988.00
2022-10-27T03:27:48.046Z,98987.00
2022-10-27T03:30:18.761Z,98985.00
2022-10-27T03:32:53.450Z,98977.00
2022-10-27T03:35:23.283Z,98971.00
2022-10-27T03:38:03.136Z,98977.00
2022-10-27T03:40:32.587Z,98974.00
2022-10-27T03:43:02.178Z,98973.00
2022-10-27T03:45:31.579Z,98976.00
2022-10-27T03:48:09.784Z,98970.00
2022-10-27T03:50:38.703Z,98963.00
2022-10-27T03:53:08.222Z,98958.00
2022-10-27T03:55:37.904Z,98957.00
2022-10-27T03:58:07.025Z,98951.00
2022-10-27T04:00:36.160Z,98945.00
2022-10-27T04:03:05.440Z,98950.00
2022-10-27T04:05:35.479Z,98942.00
2022-10-27T04:08:04.747Z,98940.00
2022-10-27T04:10:34.270Z,98930.00
2022-10-27T04:13:03.433Z,98924.00
2022-10-27T04:15:32.604Z,98921.00
2022-10-27T04:18:02.288Z,98922.00
2022-10-27T04:20:31.993Z,98917.00
2022-10-27T04:23:01.848Z,98909.00
2022-10-27T04:25:31.062Z,98898.00
2022-10-27T04:28:07.832Z,98897.00
2022-10-27T04:30:38.295Z,98896.00
2022-10-27T04:33:07.580Z,98894.00
2022-10-27T04:35:36.712Z,98896.00
2022-10-27T04:38:05.921Z,98890.00
2022-10-27T04:40:35.330Z,98885.00
2022-10-27T04:43:04.467Z,98877.00
2022-10-27T04:45:33.649Z,98878.00
2022-10-27T04:48:03.407Z,98872.00
2022-10-27T04:50:32.535Z,98880.00
2022-10-27T04:53:04.555Z,98877.00
2022-10-27T04:55:35.152Z,98877.00
2022-10-27T04:58:06.825Z,98877.00
2022-10-27T05:00:38.653Z,98869.00
2022-10-27T05:03:08.009Z,98868.00
2022-10-27T05:05:37.288Z,98867.00
2022-10-27T05:08:06.720Z,98855.00
2022-10-27T05:10:37.222Z,98845.00
2022-10-27T05:13:06.407Z,98849.00
2022-10-27T05:15:35.679Z,98849.00
2022-10-27T05:18:06.856Z,98845.00
2022-10-27T05:20:38.660Z,98837.00
2022-10-27T05:23:08.965Z,98830.00
2022-10-27T05:25:38.136Z,98821.00
2022-10-27T05:28:10.280Z,98819.00
2022-10-27T05:30:41.110Z,98822.00
2022-10-27T05:33:10.266Z,98818.00
2022-10-27T05:35:39.383Z,98819.00
2022-10-27T05:38:08.971Z,98808.00
2022-10-27T05:40:40.969Z,98802.00
2022-10-27T05:43:11.441Z,98791.00
2022-10-27T05:45:40.720Z,98800.00
2022-10-27T05:48:12.366Z,98788.00
2022-10-27T05:53:15.441Z,98786.00
2022-10-27T05:55:44.609Z,98777.00
2022-10-27T05:58:13.890Z,98774.00
2022-10-27T06:00:43.039Z,98774.00
2022-10-27T06:03:24.477Z,98765.00
2022-10-27T06:05:55.061Z,98765.00
2022-10-27T06:08:25.294Z,98750.00
2022-10-27T06:10:54.451Z,98743.00
2022-10-27T06:13:23.648Z,98735.00
2022-10-27T06:15:52.795Z,98734.00
2022-10-27T06:18:21.978Z,98727.00
2022-10-27T06:20:51.343Z,98720.00
2022-10-27T06:23:20.583Z,98714.00
2022-10-27T06:25:49.773Z,98709.00
2022-10-27T06:28:18.945Z,98708.00
2022-10-27T06:30:48.131Z,98707.00
2022-10-27T06:33:17.261Z,98693.00
2022-10-27T06:35:48.428Z,98695.00
2022-10-27T06:38:18.027Z,98681.00
2022-10-27T06:40:47.710Z,98678.00
2022-10-27T06:43:17.240Z,98680.00
2022-10-27T06:45:50.434Z,98672.00
2022-10-27T06:48:19.733Z,98675.00
2022-10-27T06:50:48.998Z,98659.00
2022-10-27T06:53:18.169Z,98664.00
2022-10-27T06:55:47.397Z,98666.00
2022-10-27T06:58:16.666Z,98662.00
2022-10-27T07:00:45.845Z,98662.00
2022-10-27T07:03:15.785Z,98655.00
2022-10-27T07:05:45.059Z,98656.00
2022-10-27T07:08:14.446Z,98653.00
2022-10-27T07:10:43.627Z,98647.00
2022-10-27T07:13:12.755Z,98644.00
2022-10-27T07:15:42.686Z,98641.00
2022-10-27T07:18:13.267Z,98632.00
2022-10-27T07:20:42.903Z,98634.00
2022-10-27T07:23:12.899Z,98625.00
2022-10-27T07:25:42.161Z,98617.00
2022-10-27T07:28:11.549Z,98607.00
2022-10-27T07:30:48.546Z,98610.00
2022-10-27T07:33:17.738Z,98602.00
2022-10-27T07:35:53.740Z,98605.00
2022-10-27T07:38:22.984Z,98608.00
2022-10-27T07:40:52.180Z,98606.00
2022-10-27T07:43:21.382Z,98606.00
2022-10-27T07:45:50.519Z,98604.00
2022-10-27T07:48:19.890Z,98599.00
2022-10-27T07:53:23.090Z,98603.00
2022-10-27T07:55:53.479Z,98598.00
2022-10-27T07:58:22.587Z,98588.00
2022-10-27T08:00:51.776Z,98587.00
2022-10-27T08:03:27.491Z,98582.00
2022-10-27T08:06:00.071Z,98569.00
2022-10-27T08:08:29.275Z,98573.00
2022-10-27T08:10:58.586Z,98570.00
2022-10-27T08:13:27.762Z,98566.00
2022-10-27T08:16:00.487Z,98559.00
2022-10-27T08:18:29.688Z,98560.00
2022-10-27T08:20:58.938Z,98560.00
2022-10-27T08:23:28.275Z,98560.00
2022-10-27T08:25:58.390Z,98554.00
2022-10-27T08:28:27.601Z,98557.00
2022-10-27T08:30:56.783Z,98559.00
2022-10-27T08:33:25.909Z,98559.00
2022-10-27T08:35:55.116Z,98556.00
2022-10-27T08:38:24.287Z,98561.00
2022-10-27T08:41:25.320Z,98550.00
2022-10-27T08:44:24.224Z,98557.00
2022-10-27T08:46:57.885Z,98554.00
2022-10-27T08:49:48.558Z,98547.00
2022-10-27T08:52:41.956Z,98550.00
2022-10-27T08:55:16.957Z,98546.00
2022-10-27T08:58:08.208Z,98551.00
2022-10-27T09:01:10.976Z,98547.00
2022-10-27T09:04:09.729Z,98551.00
2022-10-27T09:06:50.319Z,98556.00
2022-10-27T09:10:01.046Z,98566.00
2022-10-27T09:13:03.503Z,98564.00
2022-10-27T09:15:53.707Z,98557.00
2022-10-27T09:18:31.233Z,98563.00
2022-10-27T09:21:04.757Z,98564.00
2022-10-27T09:23:52.664Z,98555.00
2022-10-27T09:26:27.766Z,98559.00
2022-10-27T09:28:57.600Z,98558.00
2022-10-27T09:31:48.465Z,98564.00
2022-10-27T09:34:28.830Z,98561.00
2022-10-27T09:36:59.008Z,98562.00
2022-10-27T09:39:28.211Z,98569.00
2022-10-27T09:41:57.414Z,98575.00
2022-10-27T09:44:27.457Z,98579.00
2022-10-27T09:46:58.334Z,98575.00
2022-10-27T09:49:43.705Z,98580.00
2022-10-27T09:52:16.768Z,98582.00
2022-10-27T09:54:59.883Z,98589.00
2022-10-27T09:57:36.009Z,98592.00
2022-10-27T10:00:22.534Z,98601.00
2022-10-27T10:03:07.687Z,98601.00
2022-10-27T10:05:39.467Z,98609.00
2022-10-27T10:08:27.884Z,98609.00
2022-10-27T10:11:19.222Z,98613.00
2022-10-27T10:14:05.047Z,98611.00
2022-10-27T10:16:34.266Z,98622.00
2022-10-27T10:19:08.675Z,98624.00
2022-10-27T10:22:20.978Z,98627.00
2022-10-27T10:24:50.237Z,98629.00
2022-10-27T10:27:31.461Z,98634.00
2022-10-27T10:30:05.891Z,98631.00
2022-10-27T10:32:38.966Z,98635.00
2022-10-27T10:35:44.931Z,98645.00
2022-10-27T10:38:26.044Z,98646.00
2022-10-27T10:41:14.255Z,98651.00
2022-10-27T10:43:44.167Z,98654.00
2022-10-27T10:46:25.894Z,98661.00
2022-10-27T10:49:00.499Z,98669.00
2022-10-27T10:51:38.133Z,98665.00
2022-10-27T10:54:18.992Z,98671.00
2022-10-27T10:56:55.586Z,98673.00
2022-10-27T10:59:32.433Z,98672.00
2022-10-27T11:02:32.414Z,98684.00
2022-10-27T11:05:20.079Z,98675.00
2022-10-27T11:07:51.975Z,98680.00
2022-10-27T11:10:24.032Z,98679.00
2022-10-27T11:12:58.575Z,98685.00
2022-10-27T11:15:55.880Z,98690.00
2022-10-27T11:18:49.159Z,98695.00
2022-10-27T11:22:06.797Z,98700.00
2022-10-27T11:25:03.803Z,98706.00
2022-10-27T11:27:56.168Z,98703.00
2022-10-27T11:30:28.986Z,98703.00
2022-10-27T11:33:27.524Z,98713.00
2022-10-27T11:36:28.316Z,98712.00
2022-10-27T11:39:00.198Z,98719.00
2022-10-27T11:42:00.398Z,98727.00
2022-10-27T11:44:42.563Z,98731.00
2022-10-27T11:47:33.728Z,98729.00
2022-10-27T11:50:29.022Z,98736.00
2022-10-27T11:53:02.776Z,98741.00
2022-10-27T11:56:11.450Z,98740.00
2022-10-27T11:58:54.107Z,98750.00
2022-10-27T12:01:31.470Z,98746.00
2022-10-27T12:04:09.799Z,98749.00
2022-10-27T12:06:55.596Z,98754.00
2022-10-27T12:10:02.002Z,98760.00
2022-10-27T12:12:42.597Z,98765.00
2022-10-27T12:16:00.298Z,98769.00
2022-10-27T12:18:39.771Z,98774.00
2022-10-27T12:21:16.494Z,98778.00
2022-10-27T12:24:28.668Z,98781.00
2022-10-27T12:27:23.922Z,98777.00
2022-10-27T12:30:00.903Z,98792.00
2022-10-27T12:32:42.655Z,98797.00
2022-10-27T12:35:21.090Z,98794.00
2022-10-27T12:38:26.316Z,98799.00
2022-10-27T12:41:46.651Z,98804.00
2022-10-27T12:44:42.438Z,98812.00
2022-10-27T12:47:29.522Z,98817.00
2022-10-27T12:50:52.153Z,98819.00
2022-10-27T12:53:56.614Z,98823.00
2022-10-27T12:56:58.860Z,98826.00
2022-10-27T13:00:06.829Z,98831.00
2022-10-27T13:02:46.735Z,98830.00
2022-10-27T13:05:49.142Z,98832.00
2022-10-27T13:08:39.616Z,98834.00
2022-10-27T13:11:29.636Z,98836.00
2022-10-27T13:14:16.450Z,98842.00
2022-10-27T13:16:52.728Z,98842.00
2022-10-27T13:19:37.312Z,98847.00
2022-10-27T13:22:15.089Z,98852.00
2022-10-27T13:25:24.530Z,98849.00
2022-10-27T13:28:22.222Z,98855.00
2022-10-27T13:31:23.942Z,98858.00
2022-10-27T13:34:11.180Z,98866.00
2022-10-27T13:36:40.654Z,98863.00
2022-10-27T13:39:18.680Z,98870.00
2022-10-27T13:41:59.854Z,98871.00
2022-10-27T13:44:36.050Z,98874.00
2022-10-27T13:47:09.883Z,98873.00
2022-10-27T13:49:45.201Z,98885.00
2022-10-27T13:52:26.641Z,98887.00
2022-10-27T13:55:05.221Z,98893.00
2022-10-27T13:58:02.773Z,98897.00
2022-10-27T14:01:18.875Z,98896.00
2022-10-27T14:04:07.786Z,98896.00
2022-10-27T14:06:44.093Z,98899.00
2022-10-27T14:09:49.126Z,98895.00
2022-10-27T14:12:38.739Z,98898.00
2022-10-27T14:15:29.048Z,98900.00
2022-10-27T14:17:59.729Z,98903.00
2022-10-27T14:20:41.989Z,98890.00
2022-10-27T14:23:18.291Z,98894.00
2022-10-27T14:25:47.988Z,98894.00
2022-10-27T14:28:24.400Z,98892.00
2022-10-27T14:31:19.810Z,98888.00
2022-10-27T14:33:49.829Z,98892.00
2022-10-27T14:36:35.581Z,98883.00
2022-10-27T14:39:11.389Z,98887.00
2022-10-27T14:41:47.789Z,98892.00
2022-10-27T14:44:32.698Z,98892.00
2022-10-27T14:47:12.857Z,98888.00
2022-10-27T14:50:17.580Z,98883.00
2022-10-27T14:52:50.672Z,98881.00
2022-10-27T14:55:40.205Z,98890.00
2022-10-27T14:58:23.687Z,98889.00
2022-10-27T15:00:53.519Z,98891.00
2022-10-27T15:03:23.498Z,98881.00
2022-10-27T15:05:52.767Z,98885.00
2022-10-27T15:08:27.205Z,98883.00
2022-10-27T15:11:01.880Z,98883.00
2022-10-27T15:13:31.188Z,98876.00
2022-10-27T15:16:07.972Z,98875.00
2022-10-27T15:18:43.610Z,98872.00
2022-10-27T15:21:24.185Z,98874.00
2022-10-27T15:24:02.877Z,98883.00
2022-10-27T15:26:32.734Z,98881.00
2022-10-27T15:31:44.172Z,98873.00
2022-10-27T15:34:33.553Z,98882.00
2022-10-27T15:37:34.760Z,98873.00
2022-10-27T15:40:45.911Z,98868.00
2022-10-27T15:43:31.421Z,98873.00
2022-10-27T15:46:36.383Z,98867.00
2022-10-27T15:49:05.465Z,98868.00
2022-10-27T15:51:51.799Z,98866.00
2022-10-27T15:54:44.019Z,98860.00
2022-10-27T15:57:41.809Z,98856.00
2022-10-27T16:00:26.291Z,98851.00
2022-10-27T16:03:00.354Z,98855.00
2022-10-27T16:05:51.937Z,98852.00
2022-10-27T16:08:21.078Z,98863.00
2022-10-27T16:10:54.180Z,98856.00
2022-10-27T16:13:24.420Z,98857.00
2022-10-27T16:15:54.844Z,98859.00
2022-10-27T16:18:25.980Z,98858.00
2022-10-27T16:20:55.136Z,98860.00
2022-10-27T16:23:24.304Z,98857.00
2022-10-27T16:25:53.615Z,98860.00
2022-10-27T16:28:29.353Z,98857.00
2022-10-27T16:30:58.590Z,98852.00
2022-10-27T16:33:27.781Z,98855.00
2022-10-27T16:35:57.982Z,98855.00
2022-10-27T16:38:27.139Z,98849.00
2022-10-27T16:40:58.561Z,98845.00
2022-10-27T16:43:36.252Z,98850.00
2022-10-27T16:46:06.441Z,98857.00
2022-10-27T16:48:37.925Z,98855.00
2022-10-27T16:51:08.235Z,98856.00
2022-10-27T16:53:37.422Z,98850.00
2022-10-27T16:56:09.171Z,98850.00
2022-10-27T16:58:42.522Z,98837.00
2022-10-27T17:01:16.992Z,98838.00
2022-10-27T17:03:48.388Z,98833.00
2022-10-27T17:06:22.505Z,98829.00
2022-10-27T17:08:51.711Z,98826.00
2022-10-27T17:11:20.774Z,98827.00
2022-10-27T17:13:49.867Z,98826.00
2022-10-27T17:16:20.279Z,98829.00
2022-10-27T17:18:49.329Z,98827.00
2022-10-27T17:21:18.455Z,98828.00
2022-10-27T17:23:47.568Z,98825.00
2022-10-27T17:26:17.847Z,98827.00
2022-10-27T17:28:49.825Z,98829.00
2022-10-27T17:31:22.758Z,98828.00
2022-10-27T17:33:58.238Z,98824.00
2022-10-27T17:36:28.758Z,98827.00
2022-10-27T17:39:00.943Z,98825.00
2022-10-27T17:41:30.169Z,98824.00
2022-10-27T17:43:59.223Z,98820.00
2022-10-27T17:46:28.495Z,98822.00
2022-10-27T17:51:33.253Z,98818.00
2022-10-27T17:54:07.005Z,98820.00
2022-10-27T17:56:38.021Z,98819.00
2022-10-27T17:59:15.011Z,98809.00
2022-10-27T18:01:46.700Z,98807.00
2022-10-27T18:04:17.064Z,98810.00
2022-10-27T18:06:46.321Z,98803.00
2022-10-27T18:09:15.498Z,98803.00
2022-10-27T18:11:45.890Z,98799.00
2022-10-27T18:14:24.425Z,98797.00
2022-10-27T18:16:53.671Z,98803.00
2022-10-27T18:19:23.394Z,98795.00
2022-10-27T18:21:53.149Z,98799.00
2022-10-27T18:24:22.696Z,98784.00
2022-10-27T18:26:52.408Z,98787.00
2022-10-27T18:29:23.874Z,98784.00
2022-10-27T18:31:55.727Z,98780.00
2022-10-27T18:34:26.216Z,98785.00
2022-10-27T18:36:55.334Z,98791.00
2022-10-27T18:39:24.773Z,98782.00
2022-10-27T18:41:53.982Z,98781.00
2022-10-27T18:44:23.192Z,98783.00
2022-10-27T18:46:52.609Z,98779.00
2022-10-27T18:49:30.371Z,98775.00
2022-10-27T18:52:06.643Z,98770.00
2022-10-27T18:54:36.712Z,98767.00
2022-10-27T18:57:05.915Z,98768.00
2022-10-27T18:59:35.168Z,98754.00
2022-10-27T19:02:04.496Z,98759.00
2022-10-27T19:04:34.157Z,98767.00
2022-10-27T19:07:03.409Z,98759.00
2022-10-27T19:09:32.497Z,98762.00
2022-10-27T19:12:01.613Z,98764.00
2022-10-27T19:14:30.881Z,98761.00
2022-10-27T19:17:00.023Z,98760.00
2022-10-27T19:19:29.901Z,98754.00
2022-10-27T19:21:59.098Z,98756.00
2022-10-27T19:24:28.209Z,98761.00
2022-10-27T19:26:57.341Z,98759.00
2022-10-27T19:29:26.816Z,98755.00
2022-10-27T19:31:55.971Z,98753.00
2022-10-27T19:34:25.137Z,98747.00
2022-10-27T19:36:54.310Z,98745.00
2022-10-27T19:39:23.432Z,98747.00
2022-10-27T19:41:52.691Z,98745.00
2022-10-27T19:44:24.768Z,98733.00
2022-10-27T19:46:55.195Z,98747.00
2022-10-27T19:49:25.078Z,98743.00
2022-10-27T19:51:54.248Z,98740.00
2022-10-27T19:54:23.481Z,98742.00
2022-10-27T19:56:52.660Z,98743.00
2022-10-27T19:59:27.593Z,98743.00
2022-10-27T20:01:59.712Z,98744.00
2022-10-27T20:04:28.907Z,98744.00
2022-10-27T20:06:58.091Z,98740.00
2022-10-27T20:09:27.380Z,98740.00
2022-10-27T20:11:56.678Z,98741.00
2022-10-27T20:14:29.195Z,98740.00
2022-10-27T20:16:58.559Z,98739.00
2022-10-27T20:19:27.839Z,98739.00
2022-10-27T20:21:57.148Z,98738.00
2022-10-27T20:24:26.339Z,98737.00
2022-10-27T20:26:55.469Z,98737.00
2022-10-27T20:29:27.190Z,98735.00
2022-10-27T20:31:57.986Z,98739.00
2022-10-27T20:34:28.026Z,98736.00
2022-10-27T20:36:57.047Z,98739.00
2022-10-27T20:39:26.159Z,98740.00
2022-10-27T20:41:55.847Z,98737.00
2022-10-27T20:44:24.896Z,98741.00
2022-10-27T20:46:53.937Z,98743.00
2022-10-27T20:49:23.082Z,98741.00
2022-10-27T20:51:52.154Z,98747.00
2022-10-27T20:54:21.274Z,98740.00
2022-10-27T20:56:50.438Z,98737.00
2022-10-27T20:59:21.364Z,98748.00
2022-10-27T21:01:54.493Z,98751.00
2022-10-27T21:04:24.174Z,98751.00
2022-10-27T21:06:53.886Z,98753.00
2022-10-27T21:09:23.289Z,98757.00
2022-10-27T21:11:52.633Z,98750.00
2022-10-27T21:14:23.096Z,98744.00
2022-10-27T21:16:52.731Z,98752.00
2022-10-27T21:19:21.965Z,98744.00
2022-10-27T21:21:51.234Z,98738.00
2022-10-27T21:24:20.500Z,98740.00
2022-10-27T21:26:49.676Z,98748.00
2022-10-27T21:29:19.081Z,98744.00
2022-10-27T21:31:48.214Z,98736.00
2022-10-27T21:34:17.404Z,98737.00
2022-10-27T21:36:46.633Z,98740.00
2022-10-27T21:39:16.509Z,98745.00
2022-10-27T21:41:45.683Z,98742.00
2022-10-27T21:44:14.887Z,98751.00
2022-10-27T21:46:44.044Z,98743.00
2022-10-27T21:49:13.697Z,98743.00
2022-10-27T21:51:42.906Z,98740.00
2022-10-27T21:54:12.077Z,98741.00
2022-10-27T21:56:43.405Z,98746.00
2022-10-27T21:59:13.574Z,98741.00
2022-10-27T22:01:42.945Z,98745.00
2022-10-27T22:04:12.543Z,98749.00
2022-10-27T22:06:41.679Z,98752.00
2022-10-27T22:09:11.274Z,98758.00
2022-10-27T22:11:40.492Z,98757.00
2022-10-27T22:14:09.728Z,98755.00
2022-10-27T22:16:38.861Z,98764.00
2022-10-27T22:19:09.608Z,98756.00
2022-10-27T22:21:40.823Z,98760.00
2022-10-27T22:24:12.174Z,98755.00
2022-10-27T22:26:42.323Z,98761.00
2022-10-27T22:29:12.173Z,98763.00
2022-10-27T22:31:41.369Z,98767.00
2022-10-27T22:34:12.376Z,98765.00
2022-10-27T22:36:41.495Z,98773.00
2022-10-27T22:39:13.821Z,98782.00
2022-10-27T22:41:42.938Z,98786.00
2022-10-27T22:44:12.043Z,98794.00
2022-10-27T22:46:41.293Z,98793.00
2022-10-27T22:49:10.497Z,98792.00
2022-10-27T22:51:39.803Z,98791.00
2022-10-27T22:54:08.938Z,98793.00
2022-10-27T22:56:38.074Z,98798.00
2022-10-27T22:59:09.452Z,98799.00
2022-10-27T23:01:41.151Z,98811.00
2022-10-27T23:04:15.979Z,98803.00
2022-10-27T23:06:46.594Z,98807.00
2022-10-27T23:09:20.935Z,98815.00
2022-10-27T23:11:50.224Z,98822.00
2022-10-27T23:14:19.688Z,98816.00
2022-10-27T23:16:48.840Z,98825.00
2022-10-27T23:19:18.192Z,98823.00
2022-10-27T23:21:47.531Z,98830.00
2022-10-27T23:24:16.734Z,98829.00
2022-10-27T23:26:45.873Z,98835.00
2022-10-27T23:29:17.824Z,98840.00
2022-10-27T23:31:47.129Z,98848.00
2022-10-27T23:34:16.274Z,98851.00
2022-10-27T23:36:47.173Z,98850.00
2022-10-27T23:39:16.564Z,98855.00
2022-10-27T23:41:45.690Z,98849.00
2022-10-27T23:44:15.032Z,98859.00
2022-10-27T23:46:44.203Z,98860.00
2022-10-27T23:49:13.364Z,98861.00
2022-10-27T23:51:42.483Z,98865.00
2022-10-27T23:54:11.686Z,98863.00
2022-10-27T23:56:40.865Z,98871.00
2022-10-27T23:59:10.036Z,98870.00
